sensor_id;sensor_type;location;lat;lon;timestamp;P1;durP1;ratioP1;P2;durP2;ratioP2
66256;SDS011;53049;43.446;3.698;2024-02-21T00:02:05;5.78;;;2.50;;
66256;SDS011;53049;43.446;3.698;2024-02-21T00:04:31;5.90;;;2.25;;
66256;SDS011;53049;43.446;3.698;2024-02-21T00:06:57;6.38;;;2.97;;
66256;SDS011;53049;43.446;3.698;2024-02-21T00:09:24;3.70;;;2.10;;
66256;SDS011;53049;43.446;3.698;2024-02-21T00:11:50;3.88;;;2.05;;
66256;SDS011;53049;43.446;3.698;2024-02-21T00:14:15;4.35;;;2.10;;
66256;SDS011;53049;43.446;3.698;2024-02-21T00:16:41;8.82;;;2.38;;
66256;SDS011;53049;43.446;3.698;2024-02-21T00:19:07;5.65;;;2.40;;
66256;SDS011;53049;43.446;3.698;2024-02-21T00:21:32;4.28;;;2.53;;
66256;SDS011;53049;43.446;3.698;2024-02-21T00:23:58;4.93;;;2.33;;
66256;SDS011;53049;43.446;3.698;2024-02-21T00:26:24;7.20;;;3.60;;
66256;SDS011;53049;43.446;3.698;2024-02-21T00:28:50;8.05;;;3.70;;
66256;SDS011;53049;43.446;3.698;2024-02-21T00:31:16;9.55;;;4.15;;
66256;SDS011;53049;43.446;3.698;2024-02-21T00:33:42;7.15;;;2.88;;
66256;SDS011;53049;43.446;3.698;2024-02-21T00:36:08;6.68;;;2.60;;
66256;SDS011;53049;43.446;3.698;2024-02-21T00:38:33;7.15;;;2.63;;
66256;SDS011;53049;43.446;3.698;2024-02-21T00:40:59;6.22;;;3.05;;
66256;SDS011;53049;43.446;3.698;2024-02-21T00:43:25;5.30;;;2.75;;
66256;SDS011;53049;43.446;3.698;2024-02-21T00:45:50;4.63;;;2.58;;
66256;SDS011;53049;43.446;3.698;2024-02-21T00:48:16;6.75;;;2.60;;
66256;SDS011;53049;43.446;3.698;2024-02-21T00:50:42;7.07;;;2.85;;
66256;SDS011;53049;43.446;3.698;2024-02-21T00:53:08;5.82;;;2.78;;
66256;SDS011;53049;43.446;3.698;2024-02-21T00:55:35;4.60;;;2.67;;
66256;SDS011;53049;43.446;3.698;2024-02-21T00:58:00;6.68;;;2.80;;
66256;SDS011;53049;43.446;3.698;2024-02-21T01:00:26;6.07;;;2.67;;
66256;SDS011;53049;43.446;3.698;2024-02-21T01:02:52;5.53;;;2.47;;
66256;SDS011;53049;43.446;3.698;2024-02-21T01:05:18;4.72;;;2.30;;
66256;SDS011;53049;43.446;3.698;2024-02-21T01:07:45;5.00;;;2.35;;
66256;SDS011;53049;43.446;3.698;2024-02-21T01:10:10;5.72;;;2.30;;
66256;SDS011;53049;43.446;3.698;2024-02-21T01:12:36;5.50;;;2.40;;
66256;SDS011;53049;43.446;3.698;2024-02-21T01:15:03;7.35;;;2.50;;
66256;SDS011;53049;43.446;3.698;2024-02-21T01:17:29;4.35;;;2.08;;
66256;SDS011;53049;43.446;3.698;2024-02-21T01:19:55;3.05;;;1.90;;
66256;SDS011;53049;43.446;3.698;2024-02-21T01:22:21;6.25;;;2.30;;
66256;SDS011;53049;43.446;3.698;2024-02-21T01:24:46;5.40;;;2.45;;
66256;SDS011;53049;43.446;3.698;2024-02-21T01:27:12;4.38;;;2.03;;
66256;SDS011;53049;43.446;3.698;2024-02-21T01:29:38;4.82;;;2.40;;
66256;SDS011;53049;43.446;3.698;2024-02-21T01:32:03;4.03;;;2.15;;
66256;SDS011;53049;43.446;3.698;2024-02-21T01:34:29;3.40;;;1.90;;
66256;SDS011;53049;43.446;3.698;2024-02-21T01:36:55;4.95;;;2.15;;
66256;SDS011;53049;43.446;3.698;2024-02-21T01:39:21;4.18;;;1.98;;
66256;SDS011;53049;43.446;3.698;2024-02-21T01:41:46;4.63;;;2.30;;
66256;SDS011;53049;43.446;3.698;2024-02-21T01:44:12;4.22;;;1.90;;
66256;SDS011;53049;43.446;3.698;2024-02-21T01:46:38;4.00;;;2.08;;
66256;SDS011;53049;43.446;3.698;2024-02-21T01:49:05;5.30;;;2.08;;
66256;SDS011;53049;43.446;3.698;2024-02-21T01:51:31;3.60;;;1.98;;
66256;SDS011;53049;43.446;3.698;2024-02-21T01:53:57;6.10;;;2.30;;
66256;SDS011;53049;43.446;3.698;2024-02-21T01:56:23;4.22;;;2.28;;
66256;SDS011;53049;43.446;3.698;2024-02-21T01:58:49;3.90;;;2.45;;
66256;SDS011;53049;43.446;3.698;2024-02-21T02:01:16;3.58;;;2.13;;
66256;SDS011;53049;43.446;3.698;2024-02-21T02:03:42;4.80;;;2.17;;
66256;SDS011;53049;43.446;3.698;2024-02-21T02:06:10;6.97;;;3.50;;
66256;SDS011;53049;43.446;3.698;2024-02-21T02:08:36;5.53;;;2.20;;
66256;SDS011;53049;43.446;3.698;2024-02-21T02:11:02;4.82;;;2.45;;
66256;SDS011;53049;43.446;3.698;2024-02-21T02:13:28;5.00;;;2.45;;
66256;SDS011;53049;43.446;3.698;2024-02-21T02:15:54;8.05;;;2.58;;
66256;SDS011;53049;43.446;3.698;2024-02-21T02:18:20;4.72;;;2.50;;
66256;SDS011;53049;43.446;3.698;2024-02-21T02:20:46;3.85;;;2.20;;
66256;SDS011;53049;43.446;3.698;2024-02-21T02:25:52;5.13;;;2.47;;
66256;SDS011;53049;43.446;3.698;2024-02-21T02:28:17;5.43;;;2.40;;
66256;SDS011;53049;43.446;3.698;2024-02-21T02:30:44;5.13;;;2.40;;
66256;SDS011;53049;43.446;3.698;2024-02-21T02:33:09;5.30;;;2.28;;
66256;SDS011;53049;43.446;3.698;2024-02-21T02:35:35;5.05;;;2.50;;
66256;SDS011;53049;43.446;3.698;2024-02-21T02:38:01;4.18;;;2.17;;
66256;SDS011;53049;43.446;3.698;2024-02-21T02:40:28;5.18;;;2.35;;
66256;SDS011;53049;43.446;3.698;2024-02-21T02:42:54;4.63;;;2.50;;
66256;SDS011;53049;43.446;3.698;2024-02-21T02:45:23;4.88;;;2.20;;
66256;SDS011;53049;43.446;3.698;2024-02-21T02:47:51;4.78;;;2.45;;
66256;SDS011;53049;43.446;3.698;2024-02-21T02:50:19;5.20;;;2.22;;
66256;SDS011;53049;43.446;3.698;2024-02-21T02:52:45;4.50;;;2.33;;
66256;SDS011;53049;43.446;3.698;2024-02-21T02:55:11;4.30;;;2.15;;
66256;SDS011;53049;43.446;3.698;2024-02-21T02:57:37;4.03;;;2.00;;
66256;SDS011;53049;43.446;3.698;2024-02-21T03:00:03;4.30;;;2.33;;
66256;SDS011;53049;43.446;3.698;2024-02-21T03:02:31;4.00;;;2.10;;
66256;SDS011;53049;43.446;3.698;2024-02-21T03:04:57;5.18;;;2.55;;
66256;SDS011;53049;43.446;3.698;2024-02-21T03:07:23;3.97;;;2.30;;
66256;SDS011;53049;43.446;3.698;2024-02-21T03:09:50;4.80;;;1.92;;
66256;SDS011;53049;43.446;3.698;2024-02-21T03:12:18;5.43;;;2.30;;
66256;SDS011;53049;43.446;3.698;2024-02-21T03:14:52;5.85;;;2.30;;
66256;SDS011;53049;43.446;3.698;2024-02-21T03:17:18;5.57;;;2.40;;
66256;SDS011;53049;43.446;3.698;2024-02-21T03:19:44;4.85;;;2.10;;
66256;SDS011;53049;43.446;3.698;2024-02-21T03:22:10;4.45;;;1.95;;
66256;SDS011;53049;43.446;3.698;2024-02-21T03:24:35;6.57;;;2.10;;
66256;SDS011;53049;43.446;3.698;2024-02-21T03:27:01;5.72;;;2.30;;
66256;SDS011;53049;43.446;3.698;2024-02-21T03:29:27;5.00;;;2.30;;
66256;SDS011;53049;43.446;3.698;2024-02-21T03:31:52;5.45;;;2.22;;
66256;SDS011;53049;43.446;3.698;2024-02-21T03:34:18;5.93;;;2.33;;
66256;SDS011;53049;43.446;3.698;2024-02-21T03:36:44;4.28;;;2.30;;
66256;SDS011;53049;43.446;3.698;2024-02-21T03:39:10;4.63;;;2.55;;
66256;SDS011;53049;43.446;3.698;2024-02-21T03:41:35;4.30;;;2.20;;
66256;SDS011;53049;43.446;3.698;2024-02-21T03:44:01;4.57;;;2.30;;
66256;SDS011;53049;43.446;3.698;2024-02-21T03:46:28;7.22;;;2.53;;
66256;SDS011;53049;43.446;3.698;2024-02-21T03:48:53;5.13;;;2.28;;
66256;SDS011;53049;43.446;3.698;2024-02-21T03:51:19;5.78;;;2.47;;
66256;SDS011;53049;43.446;3.698;2024-02-21T03:53:45;3.90;;;2.08;;
66256;SDS011;53049;43.446;3.698;2024-02-21T03:56:10;5.88;;;2.45;;
66256;SDS011;53049;43.446;3.698;2024-02-21T03:58:37;2.90;;;1.90;;
66256;SDS011;53049;43.446;3.698;2024-02-21T04:01:02;3.72;;;2.00;;
66256;SDS011;53049;43.446;3.698;2024-02-21T04:03:29;7.32;;;2.30;;
66256;SDS011;53049;43.446;3.698;2024-02-21T04:05:55;4.70;;;2.13;;
66256;SDS011;53049;43.446;3.698;2024-02-21T04:08:22;3.40;;;1.70;;
66256;SDS011;53049;43.446;3.698;2024-02-21T04:10:48;4.38;;;2.13;;
66256;SDS011;53049;43.446;3.698;2024-02-21T04:13:14;3.13;;;1.95;;
66256;SDS011;53049;43.446;3.698;2024-02-21T04:15:40;3.72;;;2.00;;
66256;SDS011;53049;43.446;3.698;2024-02-21T04:18:05;3.85;;;1.92;;
66256;SDS011;53049;43.446;3.698;2024-02-21T04:20:31;3.13;;;1.80;;
66256;SDS011;53049;43.446;3.698;2024-02-21T04:22:57;3.88;;;2.30;;
66256;SDS011;53049;43.446;3.698;2024-02-21T04:25:23;5.72;;;1.92;;
66256;SDS011;53049;43.446;3.698;2024-02-21T04:27:49;3.35;;;1.90;;
66256;SDS011;53049;43.446;3.698;2024-02-21T04:30:15;5.07;;;2.10;;
66256;SDS011;53049;43.446;3.698;2024-02-21T04:32:41;5.88;;;2.25;;
66256;SDS011;53049;43.446;3.698;2024-02-21T04:35:07;4.93;;;2.13;;
66256;SDS011;53049;43.446;3.698;2024-02-21T04:37:33;3.13;;;2.10;;
66256;SDS011;53049;43.446;3.698;2024-02-21T04:40:00;5.03;;;2.10;;
66256;SDS011;53049;43.446;3.698;2024-02-21T04:42:25;6.00;;;2.22;;
66256;SDS011;53049;43.446;3.698;2024-02-21T04:44:52;5.18;;;2.35;;
66256;SDS011;53049;43.446;3.698;2024-02-21T04:47:18;3.33;;;1.90;;
66256;SDS011;53049;43.446;3.698;2024-02-21T04:49:45;4.32;;;2.00;;
66256;SDS011;53049;43.446;3.698;2024-02-21T04:52:11;4.70;;;2.22;;
66256;SDS011;53049;43.446;3.698;2024-02-21T04:54:37;5.30;;;2.30;;
66256;SDS011;53049;43.446;3.698;2024-02-21T04:57:03;4.10;;;1.77;;
66256;SDS011;53049;43.446;3.698;2024-02-21T04:59:29;4.82;;;1.98;;
66256;SDS011;53049;43.446;3.698;2024-02-21T05:01:55;3.75;;;1.83;;
66256;SDS011;53049;43.446;3.698;2024-02-21T05:04:20;3.53;;;1.70;;
66256;SDS011;53049;43.446;3.698;2024-02-21T05:06:46;4.35;;;2.25;;
66256;SDS011;53049;43.446;3.698;2024-02-21T05:09:12;5.15;;;2.15;;
66256;SDS011;53049;43.446;3.698;2024-02-21T05:11:40;4.80;;;2.10;;
66256;SDS011;53049;43.446;3.698;2024-02-21T05:14:06;4.65;;;1.80;;
66256;SDS011;53049;43.446;3.698;2024-02-21T05:16:32;2.92;;;1.92;;
66256;SDS011;53049;43.446;3.698;2024-02-21T05:18:57;5.95;;;2.25;;
66256;SDS011;53049;43.446;3.698;2024-02-21T05:21:23;4.32;;;2.03;;
66256;SDS011;53049;43.446;3.698;2024-02-21T05:23:50;4.55;;;2.58;;
66256;SDS011;53049;43.446;3.698;2024-02-21T05:26:19;4.32;;;2.30;;
66256;SDS011;53049;43.446;3.698;2024-02-21T05:28:47;3.92;;;2.40;;
66256;SDS011;53049;43.446;3.698;2024-02-21T05:31:12;4.50;;;2.50;;
66256;SDS011;53049;43.446;3.698;2024-02-21T05:33:39;5.28;;;2.33;;
66256;SDS011;53049;43.446;3.698;2024-02-21T05:36:05;2.55;;;1.98;;
66256;SDS011;53049;43.446;3.698;2024-02-21T05:38:31;3.17;;;2.10;;
66256;SDS011;53049;43.446;3.698;2024-02-21T05:40:57;5.07;;;2.15;;
66256;SDS011;53049;43.446;3.698;2024-02-21T05:43:23;7.53;;;2.92;;
66256;SDS011;53049;43.446;3.698;2024-02-21T05:45:49;3.45;;;2.15;;
66256;SDS011;53049;43.446;3.698;2024-02-21T05:48:14;5.25;;;2.53;;
66256;SDS011;53049;43.446;3.698;2024-02-21T05:50:41;5.38;;;2.67;;
66256;SDS011;53049;43.446;3.698;2024-02-21T05:53:06;6.10;;;2.40;;
66256;SDS011;53049;43.446;3.698;2024-02-21T05:55:33;3.90;;;2.30;;
66256;SDS011;53049;43.446;3.698;2024-02-21T05:57:59;5.38;;;2.35;;
66256;SDS011;53049;43.446;3.698;2024-02-21T06:00:25;3.67;;;2.25;;
66256;SDS011;53049;43.446;3.698;2024-02-21T06:02:51;5.95;;;2.00;;
66256;SDS011;53049;43.446;3.698;2024-02-21T06:05:16;3.92;;;2.03;;
66256;SDS011;53049;43.446;3.698;2024-02-21T06:07:42;5.95;;;2.42;;
66256;SDS011;53049;43.446;3.698;2024-02-21T06:10:08;6.22;;;2.42;;
66256;SDS011;53049;43.446;3.698;2024-02-21T06:12:34;4.97;;;2.83;;
66256;SDS011;53049;43.446;3.698;2024-02-21T06:15:00;3.13;;;2.10;;
66256;SDS011;53049;43.446;3.698;2024-02-21T06:17:25;5.57;;;2.40;;
66256;SDS011;53049;43.446;3.698;2024-02-21T06:19:51;4.60;;;2.72;;
66256;SDS011;53049;43.446;3.698;2024-02-21T06:22:17;4.97;;;2.53;;
66256;SDS011;53049;43.446;3.698;2024-02-21T06:24:42;4.10;;;2.40;;
66256;SDS011;53049;43.446;3.698;2024-02-21T06:27:09;6.45;;;3.15;;
66256;SDS011;53049;43.446;3.698;2024-02-21T06:29:36;3.83;;;2.25;;
66256;SDS011;53049;43.446;3.698;2024-02-21T06:32:02;4.57;;;2.33;;
66256;SDS011;53049;43.446;3.698;2024-02-21T06:34:28;4.30;;;2.22;;
66256;SDS011;53049;43.446;3.698;2024-02-21T06:36:54;4.03;;;2.35;;
66256;SDS011;53049;43.446;3.698;2024-02-21T06:39:20;4.15;;;2.50;;
66256;SDS011;53049;43.446;3.698;2024-02-21T06:41:47;5.10;;;2.45;;
66256;SDS011;53049;43.446;3.698;2024-02-21T06:44:15;5.82;;;2.85;;
66256;SDS011;53049;43.446;3.698;2024-02-21T06:46:41;4.10;;;2.53;;
66256;SDS011;53049;43.446;3.698;2024-02-21T06:49:07;4.13;;;2.60;;
66256;SDS011;53049;43.446;3.698;2024-02-21T06:51:32;6.85;;;2.83;;
66256;SDS011;53049;43.446;3.698;2024-02-21T06:53:59;9.02;;;3.30;;
66256;SDS011;53049;43.446;3.698;2024-02-21T06:56:25;8.45;;;4.07;;
66256;SDS011;53049;43.446;3.698;2024-02-21T06:58:53;6.75;;;2.92;;
66256;SDS011;53049;43.446;3.698;2024-02-21T07:01:19;6.28;;;2.40;;
66256;SDS011;53049;43.446;3.698;2024-02-21T07:03:45;5.00;;;2.50;;
66256;SDS011;53049;43.446;3.698;2024-02-21T07:06:11;5.93;;;2.70;;
66256;SDS011;53049;43.446;3.698;2024-02-21T07:08:37;5.72;;;2.70;;
66256;SDS011;53049;43.446;3.698;2024-02-21T07:11:04;5.72;;;3.30;;
66256;SDS011;53049;43.446;3.698;2024-02-21T07:13:29;7.47;;;3.60;;
66256;SDS011;53049;43.446;3.698;2024-02-21T07:15:55;8.70;;;4.10;;
66256;SDS011;53049;43.446;3.698;2024-02-21T07:18:21;10.15;;;4.68;;
66256;SDS011;53049;43.446;3.698;2024-02-21T07:20:47;6.45;;;3.30;;
66256;SDS011;53049;43.446;3.698;2024-02-21T07:23:12;6.45;;;3.65;;
66256;SDS011;53049;43.446;3.698;2024-02-21T07:25:38;7.40;;;3.22;;
66256;SDS011;53049;43.446;3.698;2024-02-21T07:28:04;5.88;;;2.90;;
66256;SDS011;53049;43.446;3.698;2024-02-21T07:30:31;12.52;;;3.55;;
66256;SDS011;53049;43.446;3.698;2024-02-21T07:32:57;25.10;;;4.10;;
66256;SDS011;53049;43.446;3.698;2024-02-21T07:35:22;16.73;;;4.22;;
66256;SDS011;53049;43.446;3.698;2024-02-21T07:37:48;20.15;;;3.97;;
66256;SDS011;53049;43.446;3.698;2024-02-21T07:40:14;10.23;;;3.20;;
66256;SDS011;53049;43.446;3.698;2024-02-21T07:42:41;8.00;;;2.92;;
66256;SDS011;53049;43.446;3.698;2024-02-21T07:45:08;13.20;;;3.70;;
66256;SDS011;53049;43.446;3.698;2024-02-21T07:47:35;9.25;;;3.22;;
66256;SDS011;53049;43.446;3.698;2024-02-21T07:50:02;7.57;;;3.15;;
66256;SDS011;53049;43.446;3.698;2024-02-21T07:52:28;6.72;;;3.25;;
66256;SDS011;53049;43.446;3.698;2024-02-21T07:54:53;8.10;;;3.28;;
66256;SDS011;53049;43.446;3.698;2024-02-21T07:57:19;10.18;;;3.53;;
66256;SDS011;53049;43.446;3.698;2024-02-21T07:59:45;9.82;;;3.58;;
66256;SDS011;53049;43.446;3.698;2024-02-21T08:02:13;8.43;;;4.00;;
66256;SDS011;53049;43.446;3.698;2024-02-21T08:04:39;9.23;;;3.45;;
66256;SDS011;53049;43.446;3.698;2024-02-21T08:07:05;9.52;;;3.70;;
66256;SDS011;53049;43.446;3.698;2024-02-21T08:09:31;6.72;;;3.85;;
66256;SDS011;53049;43.446;3.698;2024-02-21T08:11:56;6.80;;;2.90;;
66256;SDS011;53049;43.446;3.698;2024-02-21T08:14:22;10.93;;;3.38;;
66256;SDS011;53049;43.446;3.698;2024-02-21T08:16:49;7.80;;;3.30;;
66256;SDS011;53049;43.446;3.698;2024-02-21T08:19:20;7.47;;;2.90;;
66256;SDS011;53049;43.446;3.698;2024-02-21T08:21:46;5.07;;;2.80;;
66256;SDS011;53049;43.446;3.698;2024-02-21T08:24:14;9.65;;;3.08;;
66256;SDS011;53049;43.446;3.698;2024-02-21T08:26:43;9.00;;;3.83;;
66256;SDS011;53049;43.446;3.698;2024-02-21T08:29:12;5.95;;;2.88;;
66256;SDS011;53049;43.446;3.698;2024-02-21T08:31:38;6.82;;;2.97;;
66256;SDS011;53049;43.446;3.698;2024-02-21T08:34:04;8.57;;;3.38;;
66256;SDS011;53049;43.446;3.698;2024-02-21T08:36:30;8.48;;;3.05;;
66256;SDS011;53049;43.446;3.698;2024-02-21T08:38:57;6.22;;;3.28;;
66256;SDS011;53049;43.446;3.698;2024-02-21T08:41:23;6.07;;;2.90;;
66256;SDS011;53049;43.446;3.698;2024-02-21T08:43:53;6.38;;;3.33;;
66256;SDS011;53049;43.446;3.698;2024-02-21T08:46:20;7.72;;;2.90;;
66256;SDS011;53049;43.446;3.698;2024-02-21T08:48:46;6.65;;;2.72;;
66256;SDS011;53049;43.446;3.698;2024-02-21T08:51:12;9.35;;;3.10;;
66256;SDS011;53049;43.446;3.698;2024-02-21T08:53:39;6.03;;;2.65;;
66256;SDS011;53049;43.446;3.698;2024-02-21T08:56:05;7.40;;;3.00;;
66256;SDS011;53049;43.446;3.698;2024-02-21T08:58:32;8.40;;;3.13;;
66256;SDS011;53049;43.446;3.698;2024-02-21T09:00:58;14.98;;;6.63;;
66256;SDS011;53049;43.446;3.698;2024-02-21T09:03:24;31.05;;;19.77;;
66256;SDS011;53049;43.446;3.698;2024-02-21T09:05:50;35.25;;;22.38;;
66256;SDS011;53049;43.446;3.698;2024-02-21T09:08:16;18.50;;;10.02;;
66256;SDS011;53049;43.446;3.698;2024-02-21T09:10:41;15.35;;;7.22;;
66256;SDS011;53049;43.446;3.698;2024-02-21T09:13:07;17.10;;;7.28;;
66256;SDS011;53049;43.446;3.698;2024-02-21T09:15:33;9.55;;;4.78;;
66256;SDS011;53049;43.446;3.698;2024-02-21T09:17:59;8.57;;;3.67;;
66256;SDS011;53049;43.446;3.698;2024-02-21T09:20:25;11.70;;;4.00;;
66256;SDS011;53049;43.446;3.698;2024-02-21T09:22:51;7.72;;;3.58;;
66256;SDS011;53049;43.446;3.698;2024-02-21T09:25:18;7.95;;;3.60;;
66256;SDS011;53049;43.446;3.698;2024-02-21T09:27:44;8.68;;;3.35;;
66256;SDS011;53049;43.446;3.698;2024-02-21T09:30:10;9.82;;;3.10;;
66256;SDS011;53049;43.446;3.698;2024-02-21T09:32:36;7.40;;;3.30;;
66256;SDS011;53049;43.446;3.698;2024-02-21T09:35:03;8.20;;;3.28;;
66256;SDS011;53049;43.446;3.698;2024-02-21T09:37:30;7.22;;;3.58;;
66256;SDS011;53049;43.446;3.698;2024-02-21T09:39:56;10.23;;;3.30;;
66256;SDS011;53049;43.446;3.698;2024-02-21T09:42:22;11.90;;;3.42;;
66256;SDS011;53049;43.446;3.698;2024-02-21T09:44:57;12.18;;;3.40;;
66256;SDS011;53049;43.446;3.698;2024-02-21T09:47:24;14.10;;;3.80;;
66256;SDS011;53049;43.446;3.698;2024-02-21T09:49:56;13.98;;;3.53;;
66256;SDS011;53049;43.446;3.698;2024-02-21T09:52:23;7.75;;;3.00;;
66256;SDS011;53049;43.446;3.698;2024-02-21T09:54:51;10.27;;;3.97;;
66256;SDS011;53049;43.446;3.698;2024-02-21T09:57:18;13.55;;;3.60;;
66256;SDS011;53049;43.446;3.698;2024-02-21T09:59:45;10.75;;;2.78;;
66256;SDS011;53049;43.446;3.698;2024-02-21T10:02:11;7.78;;;2.90;;
66256;SDS011;53049;43.446;3.698;2024-02-21T10:04:37;10.43;;;2.70;;
66256;SDS011;53049;43.446;3.698;2024-02-21T10:07:05;8.13;;;2.78;;
66256;SDS011;53049;43.446;3.698;2024-02-21T10:09:31;6.45;;;2.83;;
66256;SDS011;53049;43.446;3.698;2024-02-21T10:12:11;8.45;;;2.70;;
66256;SDS011;53049;43.446;3.698;2024-02-21T10:14:37;6.97;;;2.50;;
66256;SDS011;53049;43.446;3.698;2024-02-21T10:17:03;6.10;;;2.30;;
66256;SDS011;53049;43.446;3.698;2024-02-21T10:19:34;8.95;;;3.15;;
66256;SDS011;53049;43.446;3.698;2024-02-21T10:22:04;8.13;;;2.60;;
66256;SDS011;53049;43.446;3.698;2024-02-21T10:24:32;6.88;;;2.45;;
66256;SDS011;53049;43.446;3.698;2024-02-21T10:27:02;8.10;;;2.60;;
66256;SDS011;53049;43.446;3.698;2024-02-21T10:29:29;5.95;;;2.63;;
66256;SDS011;53049;43.446;3.698;2024-02-21T10:32:08;6.57;;;2.60;;
66256;SDS011;53049;43.446;3.698;2024-02-21T10:34:36;5.93;;;2.70;;
66256;SDS011;53049;43.446;3.698;2024-02-21T10:37:03;5.00;;;2.20;;
66256;SDS011;53049;43.446;3.698;2024-02-21T10:39:33;7.95;;;2.42;;
66256;SDS011;53049;43.446;3.698;2024-02-21T10:42:01;6.57;;;2.35;;
66256;SDS011;53049;43.446;3.698;2024-02-21T10:44:32;8.20;;;2.63;;
66256;SDS011;53049;43.446;3.698;2024-02-21T10:47:01;5.88;;;2.78;;
66256;SDS011;53049;43.446;3.698;2024-02-21T10:49:41;5.05;;;2.45;;
66256;SDS011;53049;43.446;3.698;2024-02-21T10:54:56;8.82;;;2.65;;
66256;SDS011;53049;43.446;3.698;2024-02-21T10:57:32;5.80;;;2.42;;
66256;SDS011;53049;43.446;3.698;2024-02-21T10:59:59;5.22;;;2.53;;
66256;SDS011;53049;43.446;3.698;2024-02-21T11:02:28;4.53;;;2.20;;
66256;SDS011;53049;43.446;3.698;2024-02-21T11:04:56;4.03;;;2.33;;
66256;SDS011;53049;43.446;3.698;2024-02-21T11:07:22;6.97;;;2.60;;
66256;SDS011;53049;43.446;3.698;2024-02-21T11:09:52;4.45;;;2.40;;
66256;SDS011;53049;43.446;3.698;2024-02-21T11:12:22;3.50;;;2.00;;
66256;SDS011;53049;43.446;3.698;2024-02-21T11:14:49;6.28;;;2.67;;
66256;SDS011;53049;43.446;3.698;2024-02-21T11:17:15;6.20;;;2.75;;
66256;SDS011;53049;43.446;3.698;2024-02-21T11:19:42;6.65;;;2.40;;
66256;SDS011;53049;43.446;3.698;2024-02-21T11:22:17;6.65;;;2.53;;
66256;SDS011;53049;43.446;3.698;2024-02-21T11:24:44;6.30;;;2.80;;
66256;SDS011;53049;43.446;3.698;2024-02-21T11:29:46;7.13;;;2.40;;
66256;SDS011;53049;43.446;3.698;2024-02-21T11:32:20;4.78;;;2.25;;
66256;SDS011;53049;43.446;3.698;2024-02-21T11:37:29;5.43;;;2.95;;
66256;SDS011;53049;43.446;3.698;2024-02-21T11:39:57;9.60;;;2.40;;
66256;SDS011;53049;43.446;3.698;2024-02-21T11:42:26;3.90;;;2.03;;
66256;SDS011;53049;43.446;3.698;2024-02-21T11:44:53;5.07;;;2.45;;
66256;SDS011;53049;43.446;3.698;2024-02-21T11:47:22;4.57;;;2.08;;
66256;SDS011;53049;43.446;3.698;2024-02-21T11:49:48;5.82;;;2.35;;
66256;SDS011;53049;43.446;3.698;2024-02-21T11:52:18;5.22;;;2.10;;
66256;SDS011;53049;43.446;3.698;2024-02-21T11:54:50;4.47;;;2.03;;
66256;SDS011;53049;43.446;3.698;2024-02-21T11:57:16;4.95;;;2.13;;
66256;SDS011;53049;43.446;3.698;2024-02-21T11:59:43;4.15;;;1.95;;
66256;SDS011;53049;43.446;3.698;2024-02-21T12:02:10;4.63;;;2.03;;
66256;SDS011;53049;43.446;3.698;2024-02-21T12:04:36;5.72;;;2.50;;
66256;SDS011;53049;43.446;3.698;2024-02-21T12:07:02;4.10;;;1.92;;
66256;SDS011;53049;43.446;3.698;2024-02-21T12:09:31;4.63;;;2.15;;
66256;SDS011;53049;43.446;3.698;2024-02-21T12:14:28;5.75;;;2.13;;
66256;SDS011;53049;43.446;3.698;2024-02-21T12:16:55;5.50;;;2.08;;
66256;SDS011;53049;43.446;3.698;2024-02-21T12:19:21;7.40;;;2.20;;
66256;SDS011;53049;43.446;3.698;2024-02-21T12:21:48;4.85;;;2.20;;
66256;SDS011;53049;43.446;3.698;2024-02-21T12:24:21;6.70;;;2.50;;
66256;SDS011;53049;43.446;3.698;2024-02-21T12:26:48;5.68;;;2.60;;
66256;SDS011;53049;43.446;3.698;2024-02-21T12:29:14;5.80;;;2.75;;
66256;SDS011;53049;43.446;3.698;2024-02-21T12:31:40;8.38;;;3.30;;
66256;SDS011;53049;43.446;3.698;2024-02-21T12:34:06;5.93;;;2.70;;
66256;SDS011;53049;43.446;3.698;2024-02-21T12:36:32;6.65;;;3.10;;
66256;SDS011;53049;43.446;3.698;2024-02-21T12:38:58;6.00;;;3.08;;
66256;SDS011;53049;43.446;3.698;2024-02-21T12:41:25;3.97;;;2.55;;
66256;SDS011;53049;43.446;3.698;2024-02-21T12:43:52;7.07;;;2.90;;
66256;SDS011;53049;43.446;3.698;2024-02-21T12:46:18;6.97;;;3.00;;
66256;SDS011;53049;43.446;3.698;2024-02-21T12:48:43;11.27;;;2.70;;
66256;SDS011;53049;43.446;3.698;2024-02-21T12:51:09;5.43;;;2.67;;
66256;SDS011;53049;43.446;3.698;2024-02-21T12:53:37;7.00;;;2.75;;
66256;SDS011;53049;43.446;3.698;2024-02-21T12:56:02;5.63;;;2.60;;
66256;SDS011;53049;43.446;3.698;2024-02-21T12:58:30;7.32;;;2.83;;
66256;SDS011;53049;43.446;3.698;2024-02-21T13:00:56;10.88;;;2.80;;
66256;SDS011;53049;43.446;3.698;2024-02-21T13:03:22;4.15;;;2.35;;
66256;SDS011;53049;43.446;3.698;2024-02-21T13:05:48;7.32;;;2.65;;
66256;SDS011;53049;43.446;3.698;2024-02-21T13:08:13;5.97;;;2.60;;
66256;SDS011;53049;43.446;3.698;2024-02-21T13:10:39;8.48;;;2.75;;
66256;SDS011;53049;43.446;3.698;2024-02-21T13:13:05;6.10;;;2.50;;
66256;SDS011;53049;43.446;3.698;2024-02-21T13:15:30;6.05;;;2.50;;
66256;SDS011;53049;43.446;3.698;2024-02-21T13:17:56;4.55;;;2.28;;
66256;SDS011;53049;43.446;3.698;2024-02-21T13:20:25;8.02;;;2.65;;
66256;SDS011;53049;43.446;3.698;2024-02-21T13:22:52;6.97;;;2.50;;
66256;SDS011;53049;43.446;3.698;2024-02-21T13:25:18;5.05;;;2.60;;
66256;SDS011;53049;43.446;3.698;2024-02-21T13:27:46;5.85;;;2.53;;
66256;SDS011;53049;43.446;3.698;2024-02-21T13:30:12;6.15;;;2.60;;
66256;SDS011;53049;43.446;3.698;2024-02-21T13:32:41;4.78;;;2.53;;
66256;SDS011;53049;43.446;3.698;2024-02-21T13:35:12;5.03;;;2.65;;
66256;SDS011;53049;43.446;3.698;2024-02-21T13:37:40;5.32;;;2.60;;
66256;SDS011;53049;43.446;3.698;2024-02-21T13:40:06;8.48;;;2.83;;
66256;SDS011;53049;43.446;3.698;2024-02-21T13:42:39;6.13;;;2.53;;
66256;SDS011;53049;43.446;3.698;2024-02-21T13:45:05;6.15;;;2.83;;
66256;SDS011;53049;43.446;3.698;2024-02-21T13:47:35;5.65;;;3.00;;
66256;SDS011;53049;43.446;3.698;2024-02-21T13:50:04;7.28;;;3.00;;
66256;SDS011;53049;43.446;3.698;2024-02-21T13:52:34;6.60;;;2.50;;
66256;SDS011;53049;43.446;3.698;2024-02-21T13:55:00;5.95;;;2.60;;
66256;SDS011;53049;43.446;3.698;2024-02-21T13:57:25;6.32;;;2.90;;
66256;SDS011;53049;43.446;3.698;2024-02-21T13:59:51;5.57;;;2.50;;
66256;SDS011;53049;43.446;3.698;2024-02-21T14:02:18;8.05;;;2.78;;
66256;SDS011;53049;43.446;3.698;2024-02-21T14:04:43;9.32;;;3.17;;
66256;SDS011;53049;43.446;3.698;2024-02-21T14:07:09;7.47;;;2.92;;
66256;SDS011;53049;43.446;3.698;2024-02-21T14:09:35;4.82;;;2.60;;
66256;SDS011;53049;43.446;3.698;2024-02-21T14:12:01;7.90;;;2.83;;
66256;SDS011;53049;43.446;3.698;2024-02-21T14:14:27;4.85;;;2.80;;
66256;SDS011;53049;43.446;3.698;2024-02-21T14:16:52;6.32;;;2.80;;
66256;SDS011;53049;43.446;3.698;2024-02-21T14:19:18;6.80;;;3.00;;
66256;SDS011;53049;43.446;3.698;2024-02-21T14:21:44;5.60;;;2.80;;
66256;SDS011;53049;43.446;3.698;2024-02-21T14:24:10;6.05;;;3.13;;
66256;SDS011;53049;43.446;3.698;2024-02-21T14:26:37;6.47;;;2.90;;
66256;SDS011;53049;43.446;3.698;2024-02-21T14:29:04;7.03;;;3.08;;
66256;SDS011;53049;43.446;3.698;2024-02-21T14:31:32;6.22;;;3.25;;
66256;SDS011;53049;43.446;3.698;2024-02-21T14:33:58;8.43;;;2.90;;
66256;SDS011;53049;43.446;3.698;2024-02-21T14:36:25;7.72;;;3.10;;
66256;SDS011;53049;43.446;3.698;2024-02-21T14:38:51;6.57;;;3.00;;
66256;SDS011;53049;43.446;3.698;2024-02-21T14:41:17;7.60;;;3.83;;
66256;SDS011;53049;43.446;3.698;2024-02-21T14:43:44;7.88;;;3.30;;
66256;SDS011;53049;43.446;3.698;2024-02-21T14:46:09;6.63;;;3.33;;
66256;SDS011;53049;43.446;3.698;2024-02-21T14:48:37;5.53;;;3.10;;
66256;SDS011;53049;43.446;3.698;2024-02-21T14:51:03;7.93;;;3.65;;
66256;SDS011;53049;43.446;3.698;2024-02-21T14:53:29;6.32;;;3.78;;
66256;SDS011;53049;43.446;3.698;2024-02-21T14:55:56;6.43;;;3.25;;